createdAt,value
2019-02-04T00:00:21.647Z,3.35
2019-02-04T00:01:21.779Z,3.35
2019-02-04T00:02:21.906Z,3.41
2019-02-04T00:03:22.036Z,3.41
2019-02-04T00:04:22.167Z,3.35
2019-02-04T00:05:22.287Z,3.44
2019-02-04T00:06:22.456Z,3.37
2019-02-04T00:07:22.575Z,3.36
2019-02-04T00:08:22.707Z,3.33
2019-02-04T00:09:22.831Z,3.33
2019-02-04T00:10:22.959Z,3.32
2019-02-04T00:11:23.087Z,3.33
2019-02-04T00:12:23.209Z,3.37
2019-02-04T00:13:23.340Z,3.35
2019-02-04T00:14:23.462Z,3.36
2019-02-04T00:15:23.582Z,3.29
2019-02-04T00:16:23.715Z,3.33
2019-02-04T00:17:23.842Z,3.32
2019-02-04T00:18:23.974Z,3.30
2019-02-04T00:19:24.111Z,3.30
2019-02-04T00:20:24.232Z,3.32
2019-02-04T00:21:24.381Z,3.35
2019-02-04T00:22:24.516Z,3.23
2019-02-04T00:23:24.644Z,3.22
2019-02-04T00:24:24.770Z,3.27
2019-02-04T00:25:24.899Z,3.27
2019-02-04T00:26:25.030Z,3.25
2019-02-04T00:27:25.159Z,3.26
2019-02-04T00:28:25.283Z,3.26
2019-02-04T00:29:25.412Z,3.17
2019-02-04T00:30:25.543Z,3.22
2019-02-04T00:31:25.680Z,3.25
2019-02-04T00:32:25.797Z,3.09
2019-02-04T00:33:25.925Z,3.12
2019-02-04T00:34:26.058Z,3.23
2019-02-04T00:35:26.178Z,3.17
2019-02-04T00:36:26.315Z,3.20
2019-02-04T00:37:26.476Z,3.22
2019-02-04T00:38:26.565Z,3.26
2019-02-04T00:39:26.693Z,3.17
2019-02-04T00:40:26.820Z,3.20
2019-02-04T00:41:26.944Z,3.25
2019-02-04T00:42:27.070Z,3.09
2019-02-04T00:43:27.195Z,3.17
2019-02-04T00:44:27.329Z,3.14
2019-02-04T00:45:27.461Z,3.02
2019-02-04T00:46:27.601Z,3.12
2019-02-04T00:47:27.718Z,3.14
2019-02-04T00:48:27.848Z,3.08
2019-02-04T00:49:27.980Z,3.07
2019-02-04T00:50:28.115Z,3.07
2019-02-04T00:51:28.248Z,3.05
2019-02-04T00:52:28.375Z,3.05
2019-02-04T00:53:28.502Z,3.05
2019-02-04T00:54:28.642Z,2.91
2019-02-04T00:55:28.770Z,2.94
2019-02-04T00:56:28.897Z,3.00
2019-02-04T00:57:29.020Z,2.99
2019-02-04T00:58:29.145Z,2.97
2019-02-04T00:59:29.276Z,2.99
2019-02-04T01:00:29.396Z,2.90
2019-02-04T01:01:30.287Z,2.94
2019-02-04T01:02:29.683Z,2.99
2019-02-04T01:03:29.818Z,2.91
2019-02-04T01:04:29.941Z,2.72
2019-02-04T01:05:30.074Z,2.72
2019-02-04T01:06:30.194Z,2.69
2019-02-04T01:07:30.335Z,2.68
2019-02-04T01:08:30.460Z,2.73
2019-02-04T01:09:30.582Z,2.73
2019-02-04T01:10:30.708Z,2.72
2019-02-04T01:11:30.838Z,2.72
2019-02-04T01:12:30.973Z,2.79
2019-02-04T01:13:31.101Z,2.78
2019-02-04T01:14:31.230Z,2.81
2019-02-04T01:15:31.367Z,2.82
2019-02-04T01:16:31.491Z,2.73
2019-02-04T01:17:31.616Z,2.57
2019-02-04T01:18:31.755Z,2.55
2019-02-04T01:19:31.881Z,2.57
2019-02-04T01:20:32.002Z,2.54
2019-02-04T01:21:32.214Z,2.48
2019-02-04T01:22:32.255Z,2.60
2019-02-04T01:23:32.384Z,2.48
2019-02-04T01:24:32.510Z,2.50
2019-02-04T01:25:32.638Z,2.51
2019-02-04T01:26:32.768Z,2.54
2019-02-04T01:27:32.891Z,2.55
2019-02-04T01:28:33.015Z,2.58
2019-02-04T01:29:33.144Z,2.57
2019-02-04T01:30:33.275Z,2.51
2019-02-04T01:31:33.406Z,2.47
2019-02-04T01:32:33.530Z,2.54
2019-02-04T01:33:33.662Z,2.47
2019-02-04T01:34:33.793Z,2.58
2019-02-04T01:35:33.930Z,2.42
2019-02-04T01:36:34.053Z,2.55
2019-02-04T01:37:34.175Z,2.57
2019-02-04T01:38:34.307Z,2.50
2019-02-04T01:39:34.437Z,2.48
2019-02-04T01:40:34.564Z,2.42
2019-02-04T01:41:34.687Z,2.53
2019-02-04T01:42:34.814Z,2.47
2019-02-04T01:43:34.941Z,2.54
2019-02-04T01:44:35.065Z,2.58
2019-02-04T01:45:35.200Z,2.53
2019-02-04T01:46:35.324Z,2.53
2019-02-04T01:47:35.446Z,2.50
2019-02-04T01:48:35.575Z,2.48
2019-02-04T01:49:35.711Z,2.51
2019-02-04T01:50:35.836Z,2.53
2019-02-04T01:51:35.968Z,2.51
2019-02-04T01:52:36.101Z,2.53
2019-02-04T01:53:36.225Z,2.60
2019-02-04T01:54:36.346Z,2.53
2019-02-04T01:55:36.470Z,2.55
2019-02-04T01:56:36.598Z,2.61
2019-02-04T01:57:36.726Z,2.60
2019-02-04T01:58:36.857Z,2.61
2019-02-04T01:59:36.975Z,2.58
2019-02-04T02:00:37.101Z,2.53
2019-02-04T02:01:37.227Z,2.54
2019-02-04T02:02:37.360Z,2.61
2019-02-04T02:03:37.488Z,2.57
2019-02-04T02:04:37.611Z,2.51
2019-02-04T02:05:37.740Z,2.55
2019-02-04T02:06:38.783Z,2.58
2019-02-04T02:07:38.055Z,2.61
2019-02-04T02:08:38.184Z,2.55
2019-02-04T02:09:39.271Z,2.61
2019-02-04T02:10:38.446Z,2.43
2019-02-04T02:11:38.573Z,2.28
2019-02-04T02:12:38.699Z,2.21
2019-02-04T02:13:38.829Z,2.14
2019-02-04T02:14:38.949Z,2.19
2019-02-04T02:15:39.164Z,2.24
2019-02-04T02:16:39.198Z,2.22
2019-02-04T02:17:39.331Z,2.30
2019-02-04T02:18:39.456Z,2.29
2019-02-04T02:19:39.583Z,2.35
2019-02-04T02:20:39.713Z,2.36
2019-02-04T02:21:39.848Z,2.33
2019-02-04T02:22:39.975Z,2.32
2019-02-04T02:23:40.119Z,2.47
2019-02-04T02:24:40.248Z,2.50
2019-02-04T02:25:40.386Z,2.47
2019-02-04T02:26:40.538Z,2.42
2019-02-04T02:27:40.667Z,2.50
2019-02-04T02:28:40.792Z,2.50
2019-02-04T02:29:40.928Z,2.50
2019-02-04T02:30:41.061Z,2.50
2019-02-04T02:31:41.183Z,2.39
2019-02-04T02:32:41.307Z,2.51
2019-02-04T02:33:41.431Z,2.45
2019-02-04T02:34:41.620Z,2.50
2019-02-04T02:35:41.687Z,2.43
2019-02-04T02:36:41.810Z,2.50
2019-02-04T02:37:41.935Z,2.36
2019-02-04T02:38:42.052Z,2.43
2019-02-04T02:39:42.185Z,2.39
2019-02-04T02:40:42.307Z,2.43
2019-02-04T02:41:42.438Z,2.51
2019-02-04T02:42:42.571Z,2.51
2019-02-04T02:43:42.694Z,2.40
2019-02-04T02:44:42.826Z,2.54
2019-02-04T02:45:42.947Z,2.48
2019-02-04T02:46:43.081Z,2.51
2019-02-04T02:47:43.201Z,2.50
2019-02-04T02:48:43.326Z,2.37
2019-02-04T02:49:43.450Z,2.43
2019-02-04T02:50:43.575Z,2.47
2019-02-04T02:51:43.704Z,2.43
2019-02-04T02:52:43.827Z,2.45
2019-02-04T02:53:43.958Z,2.47
2019-02-04T02:54:44.087Z,2.48
2019-02-04T02:55:44.233Z,2.40
2019-02-04T02:56:44.342Z,2.50
2019-02-04T02:57:44.537Z,2.40
2019-02-04T02:58:44.655Z,2.39
2019-02-04T02:59:44.733Z,2.43
2019-02-04T03:00:44.863Z,2.43
2019-02-04T03:01:44.989Z,2.45
2019-02-04T03:02:45.126Z,2.33
2019-02-04T03:03:45.244Z,2.43
2019-02-04T03:04:45.367Z,2.42
2019-02-04T03:05:45.493Z,2.40
2019-02-04T03:06:45.620Z,2.33
2019-02-04T03:07:45.749Z,2.32
2019-02-04T03:08:45.873Z,2.32
2019-02-04T03:09:46.001Z,2.33
2019-02-04T03:10:46.131Z,2.25
2019-02-04T03:11:46.251Z,2.33
2019-02-04T03:12:46.380Z,2.30
2019-02-04T03:13:46.504Z,2.36
2019-02-04T03:14:46.639Z,2.30
2019-02-04T03:15:46.772Z,2.33
2019-02-04T03:16:46.897Z,2.36
2019-02-04T03:17:52.011Z,2.39
2019-02-04T03:18:47.145Z,2.33
2019-02-04T03:19:47.270Z,2.25
2019-02-04T03:20:47.398Z,2.21
2019-02-04T03:21:47.520Z,2.32
2019-02-04T03:22:47.654Z,2.33
2019-02-04T03:23:47.772Z,2.36
2019-02-04T03:24:47.899Z,2.29
2019-02-04T03:25:48.027Z,2.36
2019-02-04T03:26:48.152Z,2.24
2019-02-04T03:27:48.285Z,2.30
2019-02-04T03:28:48.409Z,2.22
2019-02-04T03:29:48.536Z,2.28
2019-02-04T03:30:48.659Z,2.22
2019-02-04T03:31:48.822Z,2.22
2019-02-04T03:32:48.914Z,2.15
2019-02-04T03:33:49.039Z,1.97
2019-02-04T03:34:49.169Z,1.97
2019-02-04T03:35:49.297Z,1.93
2019-02-04T03:36:49.425Z,1.81
2019-02-04T03:37:52.226Z,1.75
2019-02-04T03:38:49.682Z,1.66
2019-02-04T03:39:49.805Z,1.81
2019-02-04T03:40:49.935Z,1.78
2019-02-04T03:41:50.060Z,1.77
2019-02-04T03:42:50.188Z,1.75
2019-02-04T03:43:50.314Z,1.69
2019-02-04T03:44:50.440Z,1.75
2019-02-04T03:45:50.567Z,1.71
2019-02-04T03:46:50.696Z,1.69
2019-02-04T03:48:03.772Z,1.71
2019-02-04T03:48:50.951Z,1.75
2019-02-04T03:49:51.082Z,1.71
2019-02-04T03:50:51.215Z,1.78
2019-02-04T03:51:51.339Z,1.84
2019-02-04T03:52:51.467Z,1.78
2019-02-04T03:53:51.593Z,1.80
2019-02-04T03:54:51.719Z,1.93
2019-02-04T03:55:51.847Z,1.93
2019-02-04T03:56:51.971Z,1.99
2019-02-04T03:57:52.098Z,1.85
2019-02-04T03:58:52.218Z,1.92
2019-02-04T03:59:52.347Z,1.97
2019-02-04T04:00:52.471Z,1.97
2019-02-04T04:01:52.601Z,1.84
2019-02-04T04:02:52.765Z,2.01
2019-02-04T04:03:52.890Z,1.99
2019-02-04T04:04:53.018Z,1.99
2019-02-04T04:05:53.147Z,1.92
2019-02-04T04:06:53.267Z,1.87
2019-02-04T04:07:53.740Z,1.73
2019-02-04T04:08:53.525Z,1.57
2019-02-04T04:09:53.649Z,1.63
2019-02-04T04:10:53.789Z,1.56
2019-02-04T04:11:53.917Z,1.64
2019-02-04T04:12:54.047Z,1.64
2019-02-04T04:13:54.170Z,1.60
2019-02-04T04:14:54.295Z,1.60
2019-02-04T04:15:54.425Z,1.64
2019-02-04T04:16:54.563Z,1.62
2019-02-04T04:17:54.687Z,1.60
2019-02-04T04:18:54.813Z,1.62
2019-02-04T04:19:54.941Z,1.74
2019-02-04T04:20:55.064Z,1.73
2019-02-04T04:21:55.193Z,1.85
2019-02-04T04:22:55.320Z,1.89
2019-02-04T04:23:55.439Z,1.81
2019-02-04T04:24:55.563Z,1.85
2019-02-04T04:25:55.695Z,1.91
2019-02-04T04:26:55.817Z,1.77
2019-02-04T04:27:55.957Z,1.95
2019-02-04T04:28:56.078Z,1.97
2019-02-04T04:29:56.205Z,2.00
2019-02-04T04:30:56.330Z,1.84
2019-02-04T04:31:56.457Z,1.75
2019-02-04T04:32:56.583Z,1.92
2019-02-04T04:33:56.708Z,1.92
2019-02-04T04:34:56.838Z,1.91
2019-02-04T04:35:56.961Z,1.75
2019-02-04T04:36:57.088Z,1.62
2019-02-04T04:37:57.225Z,1.57
2019-02-04T04:38:57.349Z,1.45
2019-02-04T04:39:57.481Z,1.45
2019-02-04T04:40:57.604Z,1.31
2019-02-04T04:41:57.732Z,1.30
2019-02-04T04:42:57.864Z,1.45
2019-02-04T04:43:57.997Z,1.45
2019-02-04T04:44:58.122Z,1.55
2019-02-04T04:45:58.251Z,1.52
2019-02-04T04:46:58.376Z,1.60
2019-02-04T04:47:58.505Z,1.75
2019-02-04T04:48:58.635Z,1.60
2019-02-04T04:49:58.755Z,1.66
2019-02-04T04:50:58.885Z,1.62
2019-02-04T04:51:59.012Z,1.63
2019-02-04T04:52:59.136Z,1.64
2019-02-04T04:53:59.266Z,1.60
2019-02-04T04:54:59.385Z,1.59
2019-02-04T04:55:59.511Z,1.67
2019-02-04T04:56:59.637Z,1.77
2019-02-04T04:57:59.761Z,1.78
2019-02-04T04:58:59.891Z,1.78
2019-02-04T05:00:00.145Z,1.69
2019-02-04T05:01:00.146Z,1.69
2019-02-04T05:02:00.272Z,1.64
2019-02-04T05:03:00.400Z,1.77
2019-02-04T05:04:00.529Z,1.62
2019-02-04T05:05:00.654Z,1.66
2019-02-04T05:06:00.773Z,1.63
2019-02-04T05:07:00.901Z,1.59
2019-02-04T05:08:01.031Z,1.52
2019-02-04T05:09:01.154Z,1.55
2019-02-04T05:10:01.282Z,1.35
2019-02-04T05:11:01.405Z,1.44
2019-02-04T05:12:01.532Z,1.36
2019-02-04T05:13:01.658Z,0.99
2019-02-04T05:14:01.785Z,0.94
2019-02-04T05:15:01.910Z,0.91
2019-02-04T05:16:02.044Z,0.90
2019-02-04T05:17:02.169Z,0.90
2019-02-04T05:18:02.311Z,0.81
2019-02-04T05:19:02.429Z,0.81
2019-02-04T05:20:02.548Z,1.00
2019-02-04T05:21:02.672Z,0.90
2019-02-04T05:22:02.801Z,0.92
2019-02-04T05:23:02.927Z,0.92
2019-02-04T05:24:03.059Z,0.96
2019-02-04T05:25:03.181Z,0.99
2019-02-04T05:26:03.306Z,1.12
2019-02-04T05:27:03.440Z,1.12
2019-02-04T05:28:03.561Z,1.24
2019-02-04T05:29:03.695Z,1.36
2019-02-04T05:30:03.821Z,1.36
2019-02-04T05:31:03.944Z,1.45
2019-02-04T05:32:04.072Z,1.46
2019-02-04T05:33:04.193Z,1.45
2019-02-04T05:34:04.397Z,1.39
2019-02-04T05:35:04.450Z,1.48
2019-02-04T05:36:04.572Z,1.45
2019-02-04T05:37:04.701Z,1.46
2019-02-04T05:38:04.824Z,1.44
2019-02-04T05:39:04.946Z,1.46
2019-02-04T05:40:05.073Z,1.45
2019-02-04T05:41:05.211Z,1.49
2019-02-04T05:42:05.341Z,1.45
2019-02-04T05:43:05.460Z,1.42
2019-02-04T05:44:05.596Z,1.48
2019-02-04T05:45:05.716Z,1.49
2019-02-04T05:46:05.844Z,1.48
2019-02-04T05:47:05.971Z,1.55
2019-02-04T05:48:06.097Z,1.56
2019-02-04T05:49:06.231Z,1.55
2019-02-04T05:50:06.353Z,1.56
2019-02-04T05:51:06.482Z,1.35
2019-02-04T05:52:06.609Z,1.39
2019-02-04T05:53:06.740Z,1.31
2019-02-04T05:54:06.857Z,1.45
2019-02-04T05:55:06.986Z,1.45
2019-02-04T05:56:07.109Z,1.44
2019-02-04T05:57:07.236Z,1.17
2019-02-04T05:58:07.366Z,1.08
2019-02-04T05:59:07.491Z,0.82
2019-02-04T06:00:07.620Z,0.99
2019-02-04T06:01:07.745Z,0.88
2019-02-04T06:02:09.465Z,0.81
2019-02-04T06:03:07.999Z,0.96
2019-02-04T06:04:08.126Z,0.76
2019-02-04T06:05:08.260Z,0.84
2019-02-04T06:06:08.376Z,0.73
2019-02-04T06:07:08.504Z,0.76
2019-02-04T06:08:08.624Z,0.62
2019-02-04T06:09:08.747Z,0.56
2019-02-04T06:10:08.871Z,0.62
2019-02-04T06:11:09.002Z,0.56
2019-02-04T06:12:09.127Z,0.60
2019-02-04T06:13:09.254Z,0.63
2019-02-04T06:14:09.376Z,0.55
2019-02-04T06:15:09.506Z,0.59
2019-02-04T06:16:09.637Z,0.69
2019-02-04T06:17:09.762Z,0.59
2019-02-04T06:18:09.897Z,0.66
2019-02-04T06:19:10.018Z,0.70
2019-02-04T06:20:10.146Z,0.74
2019-02-04T06:21:10.264Z,0.80
2019-02-04T06:22:10.391Z,0.78
2019-02-04T06:23:10.516Z,0.82
2019-02-04T06:24:10.644Z,0.82
2019-02-04T06:25:10.772Z,0.74
2019-02-04T06:26:10.905Z,0.82
2019-02-04T06:27:11.034Z,0.92
2019-02-04T06:28:11.156Z,0.92
2019-02-04T06:29:11.284Z,0.88
2019-02-04T06:30:11.406Z,1.12
2019-02-04T06:31:11.539Z,1.28
2019-02-04T06:32:11.658Z,1.30
2019-02-04T06:33:11.785Z,1.34
2019-02-04T06:34:11.911Z,1.44
2019-02-04T06:35:12.031Z,1.53
2019-02-04T06:36:12.158Z,1.57
2019-02-04T06:37:12.294Z,1.67
2019-02-04T06:38:12.419Z,1.66
2019-02-04T06:39:12.548Z,1.66
2019-02-04T06:40:12.672Z,1.62
2019-02-04T06:41:12.803Z,1.77
2019-02-04T06:42:12.931Z,1.67
2019-02-04T06:43:13.060Z,1.73
2019-02-04T06:44:13.180Z,1.75
2019-02-04T06:45:13.313Z,1.64
2019-02-04T06:46:13.439Z,1.64
2019-02-04T06:47:13.570Z,1.71
2019-02-04T06:48:13.725Z,1.82
2019-02-04T06:49:13.824Z,1.77
2019-02-04T06:50:13.949Z,1.78
2019-02-04T06:51:14.078Z,1.75
2019-02-04T06:52:14.202Z,1.64
2019-02-04T06:53:14.329Z,1.56
2019-02-04T06:54:14.456Z,1.71
2019-02-04T06:55:14.583Z,1.73
2019-02-04T06:56:14.708Z,1.71
2019-02-04T06:57:14.839Z,1.77
2019-02-04T06:58:14.956Z,1.74
2019-02-04T06:59:15.086Z,1.78
2019-02-04T07:00:15.211Z,1.84
2019-02-04T07:01:15.336Z,1.82
2019-02-04T07:02:15.460Z,1.82
2019-02-04T07:03:15.607Z,1.85
2019-02-04T07:04:15.715Z,1.87
2019-02-04T07:05:15.836Z,1.91
2019-02-04T07:06:15.965Z,1.92
2019-02-04T07:07:16.094Z,1.78
2019-02-04T07:08:16.220Z,1.74
2019-02-04T07:09:16.344Z,1.81
2019-02-04T07:10:16.470Z,2.00
2019-02-04T07:11:16.604Z,2.03
2019-02-04T07:12:16.742Z,2.06
2019-02-04T07:13:16.869Z,2.06
2019-02-04T07:14:17.019Z,2.07
2019-02-04T07:15:17.119Z,2.18
2019-02-04T07:16:17.248Z,2.17
2019-02-04T07:17:17.376Z,2.22
2019-02-04T07:18:17.498Z,2.18
2019-02-04T07:19:24.229Z,2.15
2019-02-04T07:20:17.755Z,2.21
2019-02-04T07:21:20.924Z,2.12
2019-02-04T07:22:17.997Z,2.15
2019-02-04T07:23:18.123Z,2.32
2019-02-04T07:24:18.264Z,2.24
2019-02-04T07:25:18.384Z,2.14
2019-02-04T07:26:18.504Z,2.00
2019-02-04T07:27:18.626Z,1.95
2019-02-04T07:28:18.752Z,1.95
2019-02-04T07:29:18.886Z,1.81
2019-02-04T07:30:19.014Z,1.77
2019-02-04T07:31:19.142Z,1.64
2019-02-04T07:32:19.272Z,1.59
2019-02-04T07:33:19.402Z,1.69
2019-02-04T07:34:19.528Z,1.64
2019-02-04T07:35:19.649Z,1.80
2019-02-04T07:36:19.772Z,1.82
2019-02-04T07:37:19.897Z,1.74
2019-02-04T07:38:20.031Z,1.92
2019-02-04T07:39:20.164Z,1.85
2019-02-04T07:40:20.292Z,1.59
2019-02-04T07:41:20.419Z,1.63
2019-02-04T07:42:20.543Z,1.60
2019-02-04T07:43:20.673Z,1.57
2019-02-04T07:44:20.804Z,1.67
2019-02-04T07:45:20.924Z,1.59
2019-02-04T07:46:21.051Z,1.60
2019-02-04T07:47:21.178Z,1.57
2019-02-04T07:48:21.305Z,1.53
2019-02-04T07:49:21.447Z,1.53
2019-02-04T07:50:21.575Z,1.60
2019-02-04T07:51:21.704Z,1.62
2019-02-04T07:52:21.829Z,1.49
2019-02-04T07:53:21.958Z,1.57
2019-02-04T07:54:22.188Z,1.66
2019-02-04T07:55:22.205Z,1.56
2019-02-04T07:56:22.332Z,1.57
2019-02-04T07:57:22.456Z,1.59
2019-02-04T07:58:22.581Z,1.52
2019-02-04T07:59:22.713Z,1.48
2019-02-04T08:00:22.836Z,1.55
2019-02-04T08:01:22.962Z,1.56
2019-02-04T08:02:23.090Z,1.55
2019-02-04T08:03:23.218Z,1.55
2019-02-04T08:04:23.345Z,1.55
2019-02-04T08:05:23.467Z,1.57
2019-02-04T08:06:23.597Z,1.59
2019-02-04T08:07:23.716Z,1.46
2019-02-04T08:08:23.840Z,1.52
2019-02-04T08:09:23.968Z,1.55
2019-02-04T08:10:24.095Z,1.49
2019-02-04T08:11:24.223Z,1.60
2019-02-04T08:12:24.355Z,1.52
2019-02-04T08:13:24.479Z,1.56
2019-02-04T08:14:24.620Z,1.59
2019-02-04T08:15:24.749Z,1.62
2019-02-04T08:16:24.865Z,1.49
2019-02-04T08:17:24.996Z,1.45
2019-02-04T08:18:25.126Z,1.38
2019-02-04T08:19:25.363Z,1.36
2019-02-04T08:20:25.390Z,1.41
2019-02-04T08:21:25.515Z,1.49
2019-02-04T08:22:25.644Z,1.59
2019-02-04T08:23:25.767Z,1.67
2019-02-04T08:24:25.904Z,1.69
2019-02-04T08:25:26.409Z,1.78
2019-02-04T08:26:26.159Z,1.93
2019-02-04T08:27:26.279Z,1.99
2019-02-04T08:28:26.413Z,2.11
2019-02-04T08:29:26.541Z,2.17
2019-02-04T08:30:26.666Z,2.28
2019-02-04T08:31:26.794Z,2.25
2019-02-04T08:32:26.921Z,2.37
2019-02-04T08:33:27.051Z,2.42
2019-02-04T08:34:27.184Z,2.54
2019-02-04T08:35:27.310Z,2.53
2019-02-04T08:36:27.451Z,2.50
2019-02-04T08:37:27.573Z,2.63
2019-02-04T08:38:27.700Z,2.53
2019-02-04T08:39:27.827Z,2.55
2019-02-04T08:40:27.955Z,2.57
2019-02-04T08:41:28.089Z,2.57
2019-02-04T08:42:28.212Z,2.60
2019-02-04T08:43:28.340Z,2.66
2019-02-04T08:44:28.465Z,2.69
2019-02-04T08:45:28.590Z,2.76
2019-02-04T08:46:28.713Z,2.87
2019-02-04T08:47:28.827Z,2.89
2019-02-04T08:48:28.970Z,2.84
2019-02-04T08:49:29.097Z,2.96
2019-02-04T08:50:29.223Z,3.00
2019-02-04T08:51:29.354Z,2.99
2019-02-04T08:52:29.483Z,3.09
2019-02-04T08:53:29.610Z,3.09
2019-02-04T08:54:29.735Z,3.09
2019-02-04T08:55:29.875Z,3.17
2019-02-04T08:56:30.000Z,3.18
2019-02-04T08:57:30.116Z,3.17
2019-02-04T08:58:30.249Z,3.15
2019-02-04T08:59:30.373Z,3.12
2019-02-04T09:00:30.504Z,3.08
2019-02-04T09:01:30.631Z,3.18
2019-02-04T09:02:30.762Z,3.22
2019-02-04T09:03:30.891Z,3.20
2019-02-04T09:04:31.026Z,3.37
2019-02-04T09:05:31.156Z,3.33
2019-02-04T09:06:31.278Z,3.37
2019-02-04T09:07:31.412Z,3.48
2019-02-04T09:08:31.536Z,3.41
2019-02-04T09:09:31.668Z,3.49
2019-02-04T09:10:31.801Z,3.63
2019-02-04T09:11:31.925Z,3.48
2019-02-04T09:12:32.049Z,3.52
2019-02-04T09:13:32.179Z,3.56
2019-02-04T09:14:32.310Z,3.56
2019-02-04T09:15:32.458Z,3.69
2019-02-04T09:16:32.569Z,3.69
2019-02-04T09:17:32.704Z,3.69
2019-02-04T09:18:44.133Z,3.52
2019-02-04T09:19:32.977Z,3.41
2019-02-04T09:20:33.103Z,3.52
2019-02-04T09:21:33.244Z,3.70
2019-02-04T09:22:33.370Z,3.76
2019-02-04T09:23:33.504Z,3.76
2019-02-04T09:24:33.629Z,3.90
2019-02-04T09:25:33.755Z,3.81
2019-02-04T09:26:33.886Z,3.67
2019-02-04T09:27:34.010Z,3.63
2019-02-04T09:28:34.138Z,3.64
2019-02-04T09:29:34.261Z,3.69
2019-02-04T09:30:34.390Z,3.62
2019-02-04T09:31:35.273Z,3.62
2019-02-04T09:32:34.621Z,3.63
2019-02-04T09:33:34.742Z,3.51
2019-02-04T09:34:34.874Z,3.51
2019-02-04T09:35:35.008Z,3.64
2019-02-04T09:36:35.129Z,3.62
2019-02-04T09:37:35.253Z,3.54
2019-02-04T09:38:35.378Z,3.49
2019-02-04T09:39:35.511Z,3.44
2019-02-04T09:40:35.638Z,3.51
2019-02-04T09:41:35.770Z,3.63
2019-02-04T09:42:35.896Z,3.64
2019-02-04T09:43:36.022Z,3.55
2019-02-04T09:44:36.160Z,3.46
2019-02-04T09:45:36.305Z,3.49
2019-02-04T09:46:36.420Z,3.33
2019-02-04T09:47:36.552Z,3.45
2019-02-04T09:48:36.739Z,3.32
2019-02-04T09:49:36.750Z,3.35
2019-02-04T09:50:36.881Z,3.32
2019-02-04T09:51:37.018Z,3.32
2019-02-04T09:52:37.144Z,3.46
2019-02-04T09:53:37.269Z,3.49
2019-02-04T09:54:37.393Z,3.64
2019-02-04T09:55:37.520Z,3.46
2019-02-04T09:56:37.646Z,3.54
2019-02-04T09:57:37.775Z,3.36
2019-02-04T09:58:37.897Z,3.49
2019-02-04T09:59:38.026Z,3.54
2019-02-04T10:00:38.152Z,3.63
2019-02-04T10:01:38.281Z,3.49
2019-02-04T10:02:38.407Z,3.51
2019-02-04T10:03:38.534Z,3.63
2019-02-04T10:04:38.661Z,3.64
2019-02-04T10:05:38.787Z,3.85
2019-02-04T10:06:38.924Z,3.74
2019-02-04T10:07:39.046Z,3.84
2019-02-04T10:08:39.176Z,3.87
2019-02-04T10:09:39.309Z,3.73
2019-02-04T10:10:39.434Z,3.85
2019-02-04T10:11:39.561Z,3.78
2019-02-04T10:12:39.686Z,3.87
2019-02-04T10:13:39.814Z,3.87
2019-02-04T10:14:39.939Z,4.00
2019-02-04T10:15:40.086Z,4.03
2019-02-04T10:16:40.201Z,4.05
2019-02-04T10:17:40.333Z,4.16
2019-02-04T10:18:40.482Z,4.06
2019-02-04T10:19:40.624Z,4.16
2019-02-04T10:20:40.743Z,4.26
2019-02-04T10:21:40.851Z,4.27
2019-02-04T10:22:40.977Z,4.42
2019-02-04T10:23:41.180Z,4.45
2019-02-04T10:24:41.231Z,4.38
2019-02-04T10:25:41.371Z,4.48
2019-02-04T10:26:41.594Z,4.59
2019-02-04T10:27:41.625Z,4.72
2019-02-04T10:28:41.741Z,4.66
2019-02-04T10:29:41.877Z,4.78
2019-02-04T10:30:41.997Z,4.71
2019-02-04T10:31:42.127Z,4.77
2019-02-04T10:32:44.365Z,4.72
2019-02-04T10:33:43.292Z,4.72
2019-02-04T10:34:42.547Z,4.59
2019-02-04T10:35:42.642Z,4.72
2019-02-04T10:36:42.812Z,4.75
2019-02-04T10:37:42.943Z,4.83
2019-02-04T10:38:43.036Z,4.85
2019-02-04T10:39:43.176Z,4.98
2019-02-04T10:40:43.339Z,4.98
2019-02-04T10:41:43.454Z,4.94
2019-02-04T10:42:43.585Z,4.83
2019-02-04T10:43:43.718Z,4.82
2019-02-04T10:44:43.812Z,4.88
2019-02-04T10:45:43.961Z,4.98
2019-02-04T10:46:44.073Z,5.04
2019-02-04T10:47:44.251Z,5.21
2019-02-04T10:48:44.361Z,5.18
2019-02-04T10:49:44.495Z,5.27
2019-02-04T10:50:46.689Z,5.52
2019-02-04T10:51:44.777Z,5.54
2019-02-04T10:52:44.893Z,5.66
2019-02-04T10:53:45.042Z,5.72
2019-02-04T10:54:45.168Z,5.87
2019-02-04T10:55:45.363Z,6.06
2019-02-04T10:56:45.435Z,5.97
2019-02-04T10:57:45.570Z,6.19
2019-02-04T10:58:45.721Z,6.37
2019-02-04T10:59:45.833Z,6.70
2019-02-04T11:00:45.979Z,6.81
2019-02-04T11:01:46.106Z,6.93
2019-02-04T11:02:46.256Z,6.99
2019-02-04T11:03:46.385Z,7.13
2019-02-04T11:04:46.543Z,6.85
2019-02-04T11:05:46.644Z,6.60
2019-02-04T11:06:46.772Z,6.79
2019-02-04T11:07:46.911Z,6.78
2019-02-04T11:08:47.071Z,6.75
2019-02-04T11:09:47.185Z,6.86
2019-02-04T11:10:47.313Z,6.96
2019-02-04T11:11:47.581Z,6.71
2019-02-04T11:12:47.610Z,6.63
2019-02-04T11:13:47.750Z,6.71
2019-02-04T11:14:47.902Z,6.97
2019-02-04T11:15:48.029Z,7.22
2019-02-04T11:16:48.130Z,7.34
2019-02-04T11:17:48.266Z,7.49
2019-02-04T11:18:48.389Z,7.24
2019-02-04T11:19:48.589Z,7.28
2019-02-04T11:20:57.743Z,7.61
2019-02-04T11:21:48.869Z,7.78
2019-02-04T11:22:49.028Z,7.55
2019-02-04T11:23:49.141Z,7.62
2019-02-04T11:24:49.278Z,7.83
2019-02-04T11:25:49.428Z,7.71
2019-02-04T11:26:49.601Z,7.83
2019-02-04T11:27:49.746Z,7.80
2019-02-04T11:28:49.860Z,7.84
2019-02-04T11:29:50.043Z,7.78
2019-02-04T11:30:50.150Z,7.96
2019-02-04T11:31:50.295Z,7.49
2019-02-04T11:32:50.383Z,7.52
2019-02-04T11:33:50.514Z,7.18
2019-02-04T11:34:50.666Z,7.50
2019-02-04T11:35:51.047Z,7.46
2019-02-04T11:36:50.940Z,7.49
2019-02-04T11:37:51.063Z,7.61
2019-02-04T11:38:51.232Z,7.47
2019-02-04T11:39:51.370Z,7.37
2019-02-04T11:40:51.524Z,7.26
2019-02-04T11:41:51.629Z,7.66
2019-02-04T11:42:51.794Z,7.81
2019-02-04T11:43:51.904Z,7.96
2019-02-04T11:44:52.020Z,7.77
2019-02-04T11:45:54.877Z,7.74
2019-02-04T11:46:52.334Z,7.54
2019-02-04T11:47:52.453Z,7.29
2019-02-04T11:48:52.545Z,6.97
2019-02-04T11:49:52.684Z,7.24
2019-02-04T11:50:52.820Z,7.21
2019-02-04T11:51:52.958Z,6.85
2019-02-04T11:52:53.095Z,6.91
2019-02-04T11:53:53.226Z,6.74
2019-02-04T11:54:53.367Z,6.82
2019-02-04T11:55:53.499Z,6.86
2019-02-04T11:56:53.639Z,6.71
2019-02-04T11:57:53.778Z,6.60
2019-02-04T11:58:53.920Z,6.50
2019-02-04T11:59:54.053Z,6.35
2019-02-04T12:00:54.190Z,6.57
2019-02-04T12:01:54.324Z,6.27
2019-02-04T12:02:54.466Z,6.21
2019-02-04T12:03:54.599Z,6.32
2019-02-04T12:04:54.731Z,6.40
2019-02-04T12:05:54.863Z,6.34
2019-02-04T12:06:55.003Z,6.50
2019-02-04T12:07:55.140Z,6.49
2019-02-04T12:08:55.269Z,6.61
2019-02-04T12:09:55.404Z,6.68
2019-02-04T12:10:55.535Z,6.78
2019-02-04T12:11:55.876Z,6.71
2019-02-04T12:12:55.810Z,6.73
2019-02-04T12:13:55.946Z,6.70
2019-02-04T12:14:56.075Z,6.75
2019-02-04T12:15:56.208Z,6.83
2019-02-04T12:16:59.058Z,6.86
2019-02-04T12:17:56.482Z,6.89
2019-02-04T12:18:56.617Z,6.88
2019-02-04T12:19:56.742Z,6.89
2019-02-04T12:20:56.901Z,6.68
2019-02-04T12:21:57.021Z,6.63
2019-02-04T12:22:57.164Z,6.74
2019-02-04T12:23:57.298Z,6.81
2019-02-04T12:24:57.426Z,6.65
2019-02-04T12:25:57.566Z,6.53
2019-02-04T12:26:57.698Z,6.64
2019-02-04T12:27:57.834Z,6.64
2019-02-04T12:28:58.053Z,6.67
2019-02-04T12:29:58.108Z,6.97
2019-02-04T12:30:58.245Z,6.73
2019-02-04T12:31:58.375Z,6.82
2019-02-04T12:32:58.506Z,6.86
2019-02-04T12:33:58.637Z,6.86
2019-02-04T12:34:58.769Z,6.88
2019-02-04T12:36:01.908Z,6.82
2019-02-04T12:36:59.035Z,6.93
2019-02-04T12:37:59.172Z,6.83
2019-02-04T12:38:59.303Z,6.68
2019-02-04T12:39:59.447Z,6.30
2019-02-04T12:40:59.586Z,6.47
2019-02-04T12:41:59.717Z,6.42
2019-02-04T12:42:59.852Z,6.47
2019-02-04T12:43:59.981Z,6.47
2019-02-04T12:45:00.328Z,6.61
2019-02-04T12:46:00.239Z,6.61
2019-02-04T12:47:00.365Z,6.79
2019-02-04T12:48:00.982Z,6.64
2019-02-04T12:49:00.637Z,6.71
2019-02-04T12:50:00.844Z,6.82
2019-02-04T12:51:00.851Z,7.04
2019-02-04T12:52:00.988Z,7.10
2019-02-04T12:53:01.114Z,7.06
2019-02-04T12:54:01.245Z,7.21
2019-02-04T12:55:01.388Z,7.03
2019-02-04T12:56:01.521Z,7.15
2019-02-04T12:57:01.654Z,7.26
2019-02-04T12:58:01.786Z,7.50
2019-02-04T12:59:01.921Z,7.66
2019-02-04T13:00:02.051Z,7.61
2019-02-04T13:01:02.179Z,7.49
2019-02-04T13:02:02.314Z,7.64
2019-02-04T13:03:02.446Z,7.60
2019-02-04T13:04:02.585Z,7.73
2019-02-04T13:05:02.716Z,7.50
2019-02-04T13:06:02.850Z,7.66
2019-02-04T13:07:03.049Z,7.71
2019-02-04T13:08:03.056Z,7.76
2019-02-04T13:09:03.192Z,7.77
2019-02-04T13:10:03.334Z,7.77
2019-02-04T13:11:03.466Z,7.73
2019-02-04T13:12:03.617Z,7.86
2019-02-04T13:13:03.745Z,7.61
2019-02-04T13:14:03.884Z,7.31
2019-02-04T13:15:04.014Z,7.19
2019-02-04T13:16:04.148Z,7.21
2019-02-04T13:17:04.284Z,7.10
2019-02-04T13:18:04.416Z,7.24
2019-02-04T13:19:04.550Z,7.19
2019-02-04T13:20:04.683Z,7.28